createdAt,value
2023-04-11T16:04:10.030Z,10.00
2023-04-11T16:04:24.395Z,11.30
2023-04-11T16:04:30.509Z,11.80
2023-04-11T16:04:40.557Z,11.50
2023-04-11T16:04:53.129Z,11.70
2023-04-11T16:05:00.882Z,12.00
2023-04-11T16:05:10.932Z,12.00
2023-04-11T16:05:31.270Z,11.20
2023-04-11T16:05:41.841Z,11.50
2023-04-11T16:05:51.489Z,11.70
2023-04-11T16:06:01.803Z,11.20
2023-04-11T16:06:12.761Z,11.20
2023-04-11T16:06:22.424Z,10.60
2023-04-11T16:06:32.147Z,11.10
2023-04-11T16:06:42.352Z,10.80
2023-04-11T16:06:52.442Z,12.70
2023-04-11T16:07:02.746Z,12.80
2023-04-11T16:07:22.910Z,11.70
2023-04-11T16:07:32.845Z,12.00
2023-04-11T16:07:42.906Z,12.20
2023-04-11T16:07:52.908Z,14.50
2023-04-11T16:08:02.967Z,15.70
2023-04-11T16:08:13.180Z,14.80
2023-04-11T16:08:23.296Z,12.60
2023-04-11T16:08:34.267Z,10.80
2023-04-11T16:08:43.792Z,11.10
2023-04-11T16:08:54.165Z,11.30
2023-04-11T16:09:03.846Z,11.00
2023-04-11T16:09:15.615Z,11.00
2023-04-11T16:09:25.718Z,10.10
2023-04-11T16:09:45.691Z,10.30
2023-04-11T16:09:54.485Z,10.70
2023-04-11T16:10:05.883Z,11.60
2023-04-11T16:10:14.596Z,12.20
2023-04-11T16:10:25.045Z,12.10
2023-04-11T16:10:34.960Z,11.60
2023-04-11T16:10:55.401Z,17.30
2023-04-11T16:11:06.439Z,17.00
2023-04-11T16:11:16.543Z,16.80
2023-04-11T16:11:25.181Z,11.30
2023-04-11T16:11:40.429Z,11.20
2023-04-11T16:11:52.128Z,11.00
2023-04-11T16:12:04.535Z,11.20
2023-04-11T16:12:14.291Z,11.30
2023-04-11T16:12:26.889Z,11.00
2023-04-11T16:12:32.967Z,9.30
2023-04-11T16:12:43.168Z,8.10
2023-04-11T16:12:53.251Z,8.10
2023-04-11T16:13:14.436Z,9.40
2023-04-11T16:13:25.738Z,8.30
2023-04-11T16:13:37.353Z,7.80
2023-04-11T16:13:44.944Z,7.70
2023-04-11T16:13:57.115Z,8.60
2023-04-11T16:14:05.022Z,9.50
2023-04-11T16:14:26.526Z,9.90
2023-04-11T16:14:34.738Z,9.50
2023-04-11T16:14:44.912Z,9.70
2023-04-11T16:14:55.220Z,9.90
2023-04-11T16:15:07.034Z,9.90
2023-04-11T16:15:18.199Z,10.10
2023-04-11T16:15:36.057Z,8.70
2023-04-11T16:15:47.721Z,7.70
2023-04-11T16:15:55.523Z,6.80
2023-04-11T16:16:05.984Z,5.70
2023-04-11T16:16:16.334Z,6.10
2023-04-11T16:16:25.957Z,7.50
2023-04-11T16:16:36.098Z,8.20
2023-04-11T16:17:00.128Z,9.90
2023-04-11T16:17:06.314Z,11.30
2023-04-11T16:17:16.409Z,10.50
2023-04-11T16:17:26.412Z,9.30
2023-04-11T16:17:40.550Z,7.20
2023-04-11T16:17:47.338Z,6.70
2023-04-11T16:18:00.601Z,7.00
2023-04-11T16:18:07.101Z,6.80
2023-04-11T16:18:20.559Z,6.90
2023-04-11T16:18:31.511Z,7.10
2023-04-11T16:18:47.708Z,8.30
2023-04-11T16:18:58.892Z,8.90
2023-04-11T16:19:07.939Z,8.60
2023-04-11T16:19:18.677Z,8.50
2023-04-11T16:19:28.860Z,8.00
2023-04-11T16:19:38.256Z,7.80
2023-04-11T16:19:48.366Z,8.40
2023-04-11T16:20:02.384Z,8.90
2023-04-11T16:20:10.410Z,9.70
2023-04-11T16:20:18.734Z,10.80
2023-04-11T16:20:28.883Z,11.70
2023-04-11T16:20:39.034Z,10.40
2023-04-11T16:20:49.993Z,8.70
2023-04-11T16:21:09.465Z,7.70
2023-04-11T16:21:19.712Z,8.60
2023-04-11T16:21:30.475Z,11.30
2023-04-11T16:21:40.970Z,13.40
2023-04-11T16:21:49.853Z,16.10
2023-04-11T16:22:04.718Z,15.80
2023-04-11T16:22:10.809Z,14.00
2023-04-11T16:22:25.774Z,11.90
2023-04-11T16:22:31.714Z,15.30
2023-04-11T16:22:41.903Z,16.40
2023-04-11T16:22:53.551Z,16.00
2023-04-11T16:23:05.620Z,11.50
2023-04-11T16:23:12.310Z,10.70
2023-04-11T16:23:32.499Z,8.60
2023-04-11T16:23:43.445Z,8.40
2023-04-11T16:23:54.294Z,8.80
2023-04-11T16:24:11.608Z,8.00
2023-04-11T16:24:17.489Z,6.50
2023-04-11T16:24:31.536Z,6.70
2023-04-11T16:24:45.044Z,10.90
2023-04-11T16:24:51.128Z,10.50
2023-04-11T16:25:02.976Z,7.90
2023-04-11T16:25:12.514Z,8.60
2023-04-11T16:25:22.398Z,9.00
2023-04-11T16:25:32.488Z,9.00
2023-04-11T16:25:51.975Z,8.50
2023-04-11T16:26:07.599Z,7.80
2023-04-11T16:26:13.800Z,7.60
2023-04-11T16:26:23.982Z,8.80
2023-04-11T16:26:38.233Z,9.90
2023-04-11T16:26:44.153Z,13.70
2023-04-11T16:26:56.908Z,19.90
2023-04-11T16:27:08.226Z,21.00
2023-04-11T16:27:14.875Z,17.20
2023-04-11T16:27:24.796Z,22.60
2023-04-11T16:27:45.132Z,20.60
2023-04-11T16:27:54.990Z,8.60
2023-04-11T16:28:05.203Z,8.50
2023-04-11T16:28:16.156Z,8.00
2023-04-11T16:28:25.437Z,7.50
2023-04-11T16:28:35.565Z,9.00
2023-04-11T16:28:45.826Z,16.00
2023-04-11T16:28:55.965Z,15.60
2023-04-11T16:29:06.435Z,14.00
2023-04-11T16:29:25.263Z,6.80
2023-04-11T16:29:36.234Z,6.40
2023-04-11T16:29:46.409Z,6.00
2023-04-11T16:29:56.639Z,6.40
2023-04-11T16:30:06.614Z,6.90
2023-04-11T16:30:17.165Z,6.50
2023-04-11T16:30:27.685Z,6.90
2023-04-11T16:30:37.000Z,7.40
2023-04-11T16:30:47.104Z,8.10
2023-04-11T16:30:58.264Z,14.00
2023-04-11T16:31:07.265Z,18.80
2023-04-11T16:31:17.702Z,21.20
2023-04-11T16:31:36.728Z,11.60
2023-04-11T16:31:47.862Z,9.60
2023-04-11T16:31:58.066Z,8.80
2023-04-11T16:32:08.285Z,6.30
2023-04-11T16:32:18.079Z,5.10
2023-04-11T16:32:28.267Z,4.00
2023-04-11T16:32:38.438Z,4.10
2023-04-11T16:32:48.547Z,4.30
2023-04-11T16:32:59.980Z,6.20
2023-04-11T16:33:08.850Z,9.70
2023-04-11T16:33:18.934Z,11.50
2023-04-11T16:33:30.110Z,11.80
2023-04-11T16:33:39.168Z,9.70
2023-04-11T16:33:49.363Z,8.80
2023-04-11T16:34:00.001Z,6.80
2023-04-11T16:34:09.498Z,7.80
2023-04-11T16:34:19.611Z,7.80
2023-04-11T16:34:39.919Z,8.00
2023-04-11T16:34:50.012Z,8.60
2023-04-11T16:35:00.267Z,9.20
2023-04-11T16:35:10.455Z,10.20
2023-04-11T16:35:20.626Z,10.00
2023-04-11T16:35:31.731Z,9.20
2023-04-11T16:35:40.920Z,8.60
2023-04-11T16:35:50.823Z,7.30
2023-04-11T16:36:01.171Z,6.90
2023-04-11T16:36:11.261Z,6.90
2023-04-11T16:36:22.242Z,7.50
2023-04-11T16:36:32.309Z,8.40
2023-04-11T16:36:41.770Z,9.30
2023-04-11T16:36:51.819Z,10.00
2023-04-11T16:37:01.763Z,9.20
2023-04-11T16:37:12.812Z,8.00
2023-04-11T16:37:22.025Z,7.40
2023-04-11T16:37:42.314Z,8.20
2023-04-11T16:37:52.337Z,7.90
2023-04-11T16:38:03.124Z,7.40
2023-04-11T16:38:12.779Z,8.20
2023-04-11T16:38:22.807Z,8.50
2023-04-11T16:38:33.044Z,8.40
2023-04-11T16:38:43.086Z,7.90
2023-04-11T16:38:53.217Z,7.10
2023-04-11T16:39:03.454Z,7.20
2023-04-11T16:39:13.542Z,6.10
2023-04-11T16:39:23.701Z,5.90
2023-04-11T16:39:33.756Z,5.60
2023-04-11T16:39:43.980Z,5.60
2023-04-11T16:39:54.095Z,5.50
2023-04-11T16:40:04.168Z,4.80
2023-04-11T16:40:14.325Z,4.60
2023-04-11T16:40:24.483Z,4.80
2023-04-11T16:40:34.649Z,4.70
2023-04-11T16:40:44.794Z,4.20
2023-04-11T16:40:54.932Z,3.90
2023-04-11T16:41:05.142Z,4.40
2023-04-11T16:41:15.349Z,5.10
2023-04-11T16:41:25.189Z,5.40
2023-04-11T16:41:35.398Z,4.70
2023-04-11T16:41:45.721Z,4.00
2023-04-11T16:41:56.288Z,4.40
2023-04-11T16:42:05.702Z,5.30
2023-04-11T16:42:16.069Z,6.90
2023-04-11T16:42:26.039Z,7.10
2023-04-11T16:42:36.173Z,6.90
2023-04-11T16:42:46.295Z,6.60
2023-04-11T16:42:56.415Z,6.60
2023-04-11T16:43:06.459Z,7.30
2023-04-11T16:43:16.664Z,7.80
2023-04-11T16:43:26.735Z,7.90
2023-04-11T16:43:36.970Z,7.50
2023-04-11T16:43:47.824Z,7.30
2023-04-11T16:43:57.400Z,6.80
2023-04-11T16:44:07.222Z,6.80
2023-04-11T16:44:18.168Z,7.30
2023-04-11T16:44:27.687Z,7.70
2023-04-11T16:44:37.617Z,7.50
2023-04-11T16:44:48.653Z,5.90
2023-04-11T16:44:57.922Z,4.60
2023-04-11T16:45:08.048Z,3.50
2023-04-11T16:45:18.137Z,4.20
2023-04-11T16:45:29.059Z,4.30
2023-04-11T16:45:38.631Z,4.70
2023-04-11T16:45:58.933Z,5.20
2023-04-11T16:46:08.906Z,5.40
2023-04-11T16:46:19.017Z,6.00
2023-04-11T16:46:29.376Z,7.90
2023-04-11T16:46:40.248Z,8.90
2023-04-11T16:46:49.334Z,9.40
2023-04-11T16:46:59.506Z,8.90
2023-04-11T16:47:09.505Z,9.20
2023-04-11T16:47:19.694Z,12.30
2023-04-11T16:47:31.321Z,14.20
2023-04-11T16:47:50.167Z,13.00
2023-04-11T16:48:00.220Z,12.30
2023-04-11T16:48:10.400Z,11.10
2023-04-11T16:48:20.400Z,10.70
2023-04-11T16:48:30.609Z,9.70
2023-04-11T16:48:40.725Z,8.60
2023-04-11T16:48:50.918Z,8.20
2023-04-11T16:49:01.011Z,9.40
2023-04-11T16:49:11.048Z,9.70
2023-04-11T16:49:21.221Z,8.90
2023-04-11T16:49:31.344Z,8.00
2023-04-11T16:49:41.406Z,8.70
2023-04-11T16:49:51.557Z,9.60
2023-04-11T16:50:01.759Z,9.60
2023-04-11T16:50:11.854Z,10.20
2023-04-11T16:50:21.903Z,10.90
2023-04-11T16:50:32.134Z,11.20
2023-04-11T16:50:43.218Z,9.90
2023-04-11T16:50:52.324Z,9.30
2023-04-11T16:51:02.934Z,8.90
2023-04-11T16:51:12.472Z,9.10
2023-04-11T16:51:22.651Z,9.40
2023-04-11T16:51:32.904Z,10.40
2023-04-11T16:51:54.341Z,10.30
2023-04-11T16:52:03.151Z,10.60
2023-04-11T16:52:13.482Z,10.60
2023-04-11T16:52:23.595Z,10.30
2023-04-11T16:52:33.734Z,10.90
2023-04-11T16:52:43.790Z,12.20
2023-04-11T16:53:03.980Z,13.00
2023-04-11T16:53:14.170Z,12.30
2023-04-11T16:53:24.232Z,10.90
2023-04-11T16:53:34.417Z,9.00
2023-04-11T16:53:44.503Z,8.40
2023-04-11T16:53:54.858Z,8.50
2023-04-11T16:54:05.591Z,8.30
2023-04-11T16:54:14.996Z,6.80
2023-04-11T16:54:25.084Z,6.20
2023-04-11T16:54:35.295Z,7.20
2023-04-11T16:54:45.353Z,8.30
2023-04-11T16:54:55.565Z,8.80
2023-04-11T16:55:05.741Z,8.70
2023-04-11T16:55:15.894Z,8.70
2023-04-11T16:55:25.823Z,8.30
2023-04-11T16:55:36.094Z,8.80
2023-04-11T16:55:46.060Z,9.20
2023-04-11T16:55:56.192Z,9.60
2023-04-11T16:56:08.585Z,7.80
2023-04-11T16:56:16.570Z,7.10
2023-04-11T16:56:27.765Z,5.90
2023-04-11T16:56:36.777Z,5.70
2023-04-11T16:56:46.940Z,5.80
2023-04-11T16:56:56.926Z,7.50
2023-04-11T16:57:17.322Z,9.90
2023-04-11T16:57:27.416Z,9.90
2023-04-11T16:57:37.476Z,9.80
2023-04-11T16:57:47.642Z,10.20
2023-04-11T16:57:57.993Z,10.40
2023-04-11T16:58:08.760Z,9.70
2023-04-11T16:58:18.186Z,8.40
2023-04-11T16:58:28.438Z,7.60
2023-04-11T16:58:38.359Z,7.30
2023-04-11T16:58:48.411Z,7.70
2023-04-11T16:59:01.440Z,7.80
2023-04-11T16:59:11.483Z,8.90
2023-04-11T16:59:19.644Z,9.20
